Time;durP1;ratioP1;P1;durP2;ratioP2;P2;SDS_P1;SDS_P2;PMS_P1;PMS_P2;Temp;Humidity;BMP_temperature;BMP_pressure;BME280_temperature;BME280_humidity;BME280_pressure;Samples;Min_cycle;Max_cycle;Signal;HPM_P1;HPM_P2
2023/03/22 00:00:48;;;;;;;7.97;3.95;;;10.90;99.90;;;;;;5032459;28;20124;-74
2023/03/22 00:03:14;;;;;;;7.70;3.20;;;10.90;99.90;;;;;;5042011;28;20043;-74
2023/03/22 00:05:40;;;;;;;10.50;3.17;;;10.90;99.90;;;;;;5041258;28;20017;-74
2023/03/22 00:08:07;;;;;;;8.18;3.47;;;10.90;99.90;;;;;;5043238;28;20537;-74
2023/03/22 00:10:34;;;;;;;9.95;3.58;;;10.90;99.90;;;;;;5039569;28;20013;-74
2023/03/22 00:13:00;;;;;;;6.93;2.92;;;10.90;99.90;;;;;;5042989;28;20025;-74
2023/03/22 00:15:28;;;;;;;10.00;3.13;;;10.80;99.90;;;;;;5041204;28;20040;-74
2023/03/22 00:17:54;;;;;;;7.45;3.03;;;10.80;99.90;;;;;;5045952;28;20025;-74
2023/03/22 00:20:22;;;;;;;4.68;2.20;;;10.80;99.90;;;;;;5042299;28;20025;-74
2023/03/22 00:22:48;;;;;;;7.50;2.58;;;10.80;99.90;;;;;;5041798;28;20075;-74
2023/03/22 00:25:14;;;;;;;10.85;3.47;;;10.70;99.90;;;;;;5045842;28;20505;-74
2023/03/22 00:27:40;;;;;;;8.23;2.97;;;10.70;99.90;;;;;;5044436;28;20024;-74
2023/03/22 00:30:06;;;;;;;8.80;3.80;;;10.70;99.90;;;;;;5042920;28;20032;-74
2023/03/22 00:32:35;;;;;;;7.90;3.50;;;10.70;99.90;;;;;;5036292;28;20029;-73
2023/03/22 00:35:02;;;;;;;6.40;2.70;;;10.60;99.90;;;;;;5031127;28;20031;-73
2023/03/22 00:37:33;;;;;;;7.53;3.00;;;10.60;99.90;;;;;;5031448;28;20422;-73
2023/03/22 00:40:03;;;;;;;7.43;2.53;;;10.60;99.90;;;;;;5030945;28;20022;-73
2023/03/22 00:42:29;;;;;;;10.07;3.03;;;10.60;99.90;;;;;;5031029;28;20029;-73
2023/03/22 00:44:55;;;;;;;9.18;3.35;;;10.60;99.90;;;;;;5030288;28;20482;-73
2023/03/22 00:47:22;;;;;;;8.70;2.88;;;10.60;99.90;;;;;;5030962;28;20022;-73
2023/03/22 00:49:48;;;;;;;7.63;3.05;;;10.50;99.90;;;;;;5032166;28;20017;-73
2023/03/22 00:52:14;;;;;;;8.07;3.58;;;10.50;99.90;;;;;;5033073;28;20078;-74
2023/03/22 00:54:39;;;;;;;7.70;3.35;;;10.50;99.90;;;;;;5031487;28;20104;-73
2023/03/22 00:57:05;;;;;;;10.82;3.58;;;10.50;99.90;;;;;;5032974;28;20057;-74
2023/03/22 00:59:31;;;;;;;7.40;3.67;;;10.50;99.90;;;;;;5033017;28;20028;-74
2023/03/22 01:01:57;;;;;;;9.57;3.92;;;10.40;99.90;;;;;;5033077;28;20057;-74
2023/03/22 01:04:24;;;;;;;8.40;3.83;;;10.40;99.90;;;;;;5033006;28;20156;-74
2023/03/22 01:06:58;;;;;;;8.55;4.32;;;10.40;99.90;;;;;;5032668;28;20474;-73
2023/03/22 01:09:27;;;;;;;7.50;3.83;;;10.40;99.90;;;;;;5032567;28;20021;-74
2023/03/22 01:11:53;;;;;;;9.90;3.90;;;10.40;99.90;;;;;;5032160;28;20021;-74
2023/03/22 01:14:19;;;;;;;8.38;4.13;;;10.40;99.90;;;;;;5032605;28;20030;-74
2023/03/22 01:16:45;;;;;;;12.10;3.97;;;10.40;99.90;;;;;;5032553;28;20494;-74
2023/03/22 01:19:10;;;;;;;8.48;3.75;;;10.30;99.90;;;;;;5032700;28;20033;-73
2023/03/22 01:21:36;;;;;;;7.03;3.88;;;10.30;99.90;;;;;;5032874;28;20025;-74
2023/03/22 01:24:02;;;;;;;9.30;4.03;;;10.40;99.90;;;;;;5030789;28;20029;-74
2023/03/22 01:26:27;;;;;;;8.32;3.67;;;10.30;99.90;;;;;;5045093;28;20023;-74
2023/03/22 01:28:53;;;;;;;7.50;4.00;;;10.30;99.90;;;;;;5031062;28;20474;-73
2023/03/22 01:31:18;;;;;;;9.48;3.75;;;10.30;99.90;;;;;;5045589;28;20668;-74
2023/03/22 01:33:44;;;;;;;8.80;3.60;;;10.30;99.90;;;;;;5031961;28;20074;-74
2023/03/22 01:36:10;;;;;;;8.50;4.15;;;10.30;99.90;;;;;;5030767;28;20067;-74
2023/03/22 01:38:35;;;;;;;9.48;4.32;;;10.30;99.90;;;;;;5032057;28;20494;-74
2023/03/22 01:41:01;;;;;;;6.93;4.10;;;10.30;99.90;;;;;;5031677;28;20025;-74
2023/03/22 01:43:27;;;;;;;9.05;3.95;;;10.30;99.90;;;;;;5031234;28;20053;-74
2023/03/22 01:45:52;;;;;;;8.85;4.80;;;10.30;99.90;;;;;;5031660;28;20107;-73
2023/03/22 01:48:33;;;;;;;8.07;4.63;;;10.20;99.90;;;;;;5032026;28;20028;-74
2023/03/22 01:51:14;;;;;;;9.18;4.43;;;10.20;99.90;;;;;;5030246;28;20036;-74
2023/03/22 01:53:47;;;;;;;12.57;5.30;;;10.20;99.90;;;;;;5041141;28;20021;-74
2023/03/22 01:56:13;;;;;;;10.18;5.78;;;10.20;99.90;;;;;;5049511;28;20037;-74
2023/03/22 01:58:40;;;;;;;8.95;5.57;;;10.30;99.90;;;;;;5043647;28;20079;-74
2023/03/22 02:01:07;;;;;;;9.00;5.38;;;10.30;99.90;;;;;;5047829;28;20084;-74
2023/03/22 02:03:41;;;;;;;15.27;6.03;;;10.30;99.90;;;;;;5051065;28;20032;-74
2023/03/22 02:06:07;;;;;;;9.38;6.32;;;10.40;99.90;;;;;;5043155;28;20521;-73
2023/03/22 02:08:32;;;;;;;11.43;5.35;;;10.50;99.90;;;;;;5044440;28;20044;-73
2023/03/22 02:11:00;;;;;;;13.75;5.97;;;10.50;99.90;;;;;;5050625;28;20028;-74
2023/03/22 02:14:02;;;;;;;9.63;6.80;;;10.60;99.90;;;;;;5050512;28;20108;-74
2023/03/22 02:16:43;;;;;;;12.63;7.43;;;10.60;99.90;;;;;;5025667;28;20041;-74
2023/03/22 02:19:46;;;;;;;14.75;6.75;;;10.70;99.90;;;;;;5051964;28;20029;-74
2023/03/22 02:22:51;;;;;;;12.73;8.05;;;10.80;99.90;;;;;;5051058;28;20079;-74
2023/03/22 02:25:29;;;;;;;14.63;8.35;;;10.80;99.90;;;;;;5027136;28;20112;-74
2023/03/22 02:28:15;;;;;;;14.23;9.13;;;10.90;99.90;;;;;;5047066;28;20049;-74
2023/03/22 02:31:08;;;;;;;13.35;8.48;;;10.90;99.90;;;;;;5028829;28;20024;-74
2023/03/22 02:34:15;;;;;;;12.93;10.02;;;10.90;99.90;;;;;;5031444;28;20018;-74
2023/03/22 02:36:43;;;;;;;16.33;10.40;;;11.00;99.90;;;;;;5031056;28;20038;-74
2023/03/22 02:39:19;;;;;;;13.38;9.55;;;11.00;99.90;;;;;;5030464;28;20037;-74
2023/03/22 02:42:08;;;;;;;13.18;10.32;;;11.10;99.90;;;;;;5030674;28;20347;-74
2023/03/22 02:44:50;;;;;;;16.48;10.85;;;11.10;99.90;;;;;;5016133;28;20021;-74
2023/03/22 02:47:24;;;;;;;16.27;11.18;;;11.10;99.90;;;;;;5011652;28;20415;-74
2023/03/22 02:49:58;;;;;;;;;;;11.10;99.90;;;;;;5011924;28;20010;-74
2023/03/22 02:52:32;;;;;;;14.70;10.88;;;11.10;99.90;;;;;;5011576;28;20282;-73
2023/03/22 02:54:57;;;;;;;13.85;11.07;;;11.10;99.90;;;;;;5029627;28;20022;-73
2023/03/22 02:57:33;;;;;;;16.67;12.38;;;11.10;99.90;;;;;;5032197;28;20120;-74
2023/03/22 03:00:00;;;;;;;15.57;11.95;;;11.20;99.90;;;;;;5024614;28;20029;-74
2023/03/22 03:02:28;;;;;;;17.85;12.07;;;11.20;99.90;;;;;;5033762;28;20041;-74
2023/03/22 03:04:55;;;;;;;17.95;12.27;;;11.20;99.90;;;;;;5031094;28;20024;-73
2023/03/22 03:07:26;;;;;;;13.95;11.63;;;11.20;99.90;;;;;;5034332;28;20017;-74
2023/03/22 03:09:52;;;;;;;15.07;12.32;;;11.20;99.90;;;;;;5031549;28;20013;-73
2023/03/22 03:12:20;;;;;;;16.23;12.77;;;11.20;99.90;;;;;;5034123;28;20127;-73
2023/03/22 03:14:46;;;;;;;18.65;13.57;;;11.20;99.90;;;;;;5032392;28;20108;-74
2023/03/22 03:17:24;;;;;;;12.63;11.13;;;11.20;99.90;;;;;;5033597;28;20101;-74
2023/03/22 03:20:29;;;;;;;15.23;11.50;;;11.20;99.90;;;;;;5031947;28;20028;-74
2023/03/22 03:23:35;;;;;;;15.77;12.57;;;11.20;99.90;;;;;;5056076;28;20041;-74
2023/03/22 03:26:27;;;;;;;17.42;12.82;;;11.20;99.90;;;;;;5001654;28;20056;-74
2023/03/22 03:29:21;;;;;;;16.75;12.18;;;11.20;99.90;;;;;;5029936;28;20526;-74
2023/03/22 03:32:01;;;;;;;16.52;12.70;;;11.10;99.90;;;;;;5042892;28;20402;-74
2023/03/22 03:34:40;;;;;;;18.38;12.45;;;11.10;99.90;;;;;;5031463;28;20029;-74
2023/03/22 03:37:12;;;;;;;14.98;12.40;;;11.20;99.90;;;;;;5017532;28;20037;-74
2023/03/22 03:39:43;;;;;;;19.80;12.20;;;11.10;99.90;;;;;;5029492;28;20036;-73
2023/03/22 03:42:14;;;;;;;12.63;10.25;;;11.10;99.90;;;;;;5029860;28;20044;-74
2023/03/22 03:44:40;;;;;;;14.32;11.10;;;11.20;99.90;;;;;;5029678;28;20010;-74
2023/03/22 03:47:07;;;;;;;15.48;10.82;;;11.10;99.90;;;;;;5038961;28;20025;-73
2023/03/22 03:49:34;;;;;;;15.10;10.23;;;11.10;99.90;;;;;;5032539;28;20478;-74
2023/03/22 03:52:02;;;;;;;14.27;10.90;;;11.10;99.90;;;;;;5032343;28;20493;-74
2023/03/22 03:54:28;;;;;;;14.25;10.55;;;11.10;99.90;;;;;;5044929;28;20393;-74
2023/03/22 03:56:53;;;;;;;17.15;11.93;;;11.10;99.90;;;;;;5033424;28;20025;-74
2023/03/22 03:59:19;;;;;;;17.55;10.05;;;11.10;99.90;;;;;;5047000;28;20502;-74
2023/03/22 04:01:50;;;;;;;12.43;8.85;;;11.10;99.90;;;;;;5044736;28;20037;-73
2023/03/22 04:04:25;;;;;;;12.93;10.32;;;11.10;99.90;;;;;;5053293;28;20146;-74
2023/03/22 04:06:55;;;;;;;11.77;9.10;;;11.00;99.90;;;;;;5043040;28;20067;-74
2023/03/22 04:09:23;;;;;;;16.75;10.00;;;11.00;99.90;;;;;;5027720;28;20033;-74
2023/03/22 04:11:49;;;;;;;11.00;9.63;;;11.00;99.90;;;;;;5052480;28;20024;-74
2023/03/22 04:14:14;;;;;;;11.55;8.75;;;11.00;99.90;;;;;;5053414;28;20025;-74
2023/03/22 04:16:40;;;;;;;14.43;8.48;;;11.00;99.90;;;;;;5039081;28;20112;-74
2023/03/22 04:19:05;;;;;;;12.98;7.97;;;11.00;99.90;;;;;;5040482;28;20029;-74
2023/03/22 04:21:31;;;;;;;14.88;7.55;;;10.90;99.90;;;;;;5052479;28;20021;-74
2023/03/22 04:23:57;;;;;;;10.70;8.52;;;10.90;99.90;;;;;;5033106;28;20025;-73
2023/03/22 04:26:23;;;;;;;11.23;8.25;;;10.90;99.90;;;;;;5033568;28;20036;-74
2023/03/22 04:28:48;;;;;;;12.70;8.48;;;10.90;99.90;;;;;;5032548;28;20079;-73
2023/03/22 04:31:14;;;;;;;11.48;8.35;;;10.90;99.90;;;;;;5044819;28;20036;-74
2023/03/22 04:33:39;;;;;;;11.10;8.10;;;10.80;99.90;;;;;;5037120;28;20508;-73
2023/03/22 04:36:14;;;;;;;10.88;6.70;;;10.80;99.90;;;;;;5048907;28;20025;-74
2023/03/22 04:38:41;;;;;;;13.27;7.78;;;10.70;99.90;;;;;;5018632;28;20374;-74
2023/03/22 04:41:07;;;;;;;10.20;7.90;;;10.70;99.90;;;;;;5031203;28;20076;-74
2023/03/22 04:43:33;;;;;;;9.63;7.43;;;10.70;99.90;;;;;;5031534;28;20025;-74
2023/03/22 04:46:02;;;;;;;9.53;7.20;;;10.70;99.90;;;;;;5032499;28;20105;-74
2023/03/22 04:48:28;;;;;;;12.68;7.43;;;10.70;99.90;;;;;;5033378;28;20053;-74
2023/03/22 04:50:54;;;;;;;8.27;6.50;;;10.60;99.90;;;;;;5033844;28;20056;-74
2023/03/22 04:53:25;;;;;;;10.65;6.70;;;10.60;99.90;;;;;;5033456;28;20030;-74
2023/03/22 04:55:55;;;;;;;7.97;6.75;;;10.60;99.90;;;;;;5033931;28;20021;-74
2023/03/22 04:58:22;;;;;;;12.65;7.00;;;10.60;99.90;;;;;;5033855;28;20386;-74
2023/03/22 05:00:51;;;;;;;12.35;6.78;;;10.60;99.90;;;;;;5032510;28;20044;-74
2023/03/22 05:03:18;;;;;;;8.95;6.75;;;10.50;99.90;;;;;;5032806;28;20028;-74
2023/03/22 05:05:55;;;;;;;10.95;6.68;;;10.60;99.90;;;;;;5034552;28;20021;-74
2023/03/22 05:08:25;;;;;;;15.57;6.78;;;10.60;99.90;;;;;;5032487;28;20160;-74
2023/03/22 05:10:52;;;;;;;13.55;6.32;;;10.60;99.90;;;;;;5033136;28;20017;-74
2023/03/22 05:13:18;;;;;;;9.60;5.68;;;10.60;99.90;;;;;;5032202;28;20032;-74
2023/03/22 05:15:44;;;;;;;16.48;6.57;;;10.60;99.90;;;;;;5032144;28;20021;-74
2023/03/22 05:18:13;;;;;;;10.20;6.33;;;10.60;99.90;;;;;;5031664;28;20087;-73
2023/03/22 05:20:39;;;;;;;11.75;6.35;;;10.60;99.90;;;;;;5032373;28;20026;-74
2023/03/22 05:23:05;;;;;;;9.60;5.55;;;10.70;99.90;;;;;;5031567;28;20105;-74
2023/03/22 05:25:30;;;;;;;9.93;5.50;;;10.70;99.90;;;;;;5032902;28;20397;-74
2023/03/22 05:28:00;;;;;;;7.95;5.32;;;10.70;99.90;;;;;;5032499;28;20022;-73
2023/03/22 05:30:30;;;;;;;6.45;4.60;;;10.70;99.90;;;;;;5019350;28;20021;-74
2023/03/22 05:33:02;;;;;;;8.82;5.57;;;10.70;99.90;;;;;;5034558;28;20032;-74
2023/03/22 05:35:29;;;;;;;7.07;4.88;;;10.70;99.90;;;;;;5035420;28;20466;-74
2023/03/22 05:37:55;;;;;;;8.15;4.88;;;10.70;99.90;;;;;;5035025;28;20040;-74
2023/03/22 05:40:21;;;;;;;8.20;4.68;;;10.60;99.90;;;;;;5034632;28;20021;-74
2023/03/22 05:42:46;;;;;;;10.98;5.30;;;10.60;99.90;;;;;;5036011;28;20029;-73
2023/03/22 05:45:13;;;;;;;8.57;5.10;;;10.60;99.90;;;;;;5035425;28;20494;-74
2023/03/22 05:47:38;;;;;;;8.77;4.28;;;10.60;99.90;;;;;;5035738;28;20049;-73
2023/03/22 05:50:09;;;;;;;8.27;4.50;;;10.50;99.90;;;;;;5034951;28;20053;-73
2023/03/22 05:52:34;;;;;;;11.00;4.75;;;10.50;99.90;;;;;;5036464;28;20027;-74
2023/03/22 05:55:00;;;;;;;11.65;4.60;;;10.50;99.90;;;;;;5034702;28;20024;-74
2023/03/22 05:57:26;;;;;;;13.43;5.05;;;10.50;99.90;;;;;;5035798;28;20037;-74
2023/03/22 05:59:52;;;;;;;6.13;4.63;;;10.50;99.90;;;;;;5034500;28;20029;-74
2023/03/22 06:02:19;;;;;;;8.00;4.88;;;10.50;99.90;;;;;;5036141;28;20038;-74
2023/03/22 06:04:45;;;;;;;9.85;4.88;;;10.50;99.90;;;;;;5034572;28;20014;-74
2023/03/22 06:07:11;;;;;;;8.27;4.38;;;10.50;99.90;;;;;;5036383;28;20368;-74
2023/03/22 06:09:37;;;;;;;9.00;5.10;;;10.50;99.90;;;;;;5034518;28;20025;-73
2023/03/22 06:12:03;;;;;;;12.15;3.85;;;10.50;99.90;;;;;;5035964;28;20025;-74
2023/03/22 06:14:29;;;;;;;9.05;4.55;;;10.50;99.90;;;;;;5033275;28;20025;-73
2023/03/22 06:16:55;;;;;;;8.93;3.95;;;10.50;99.90;;;;;;5035904;28;20509;-74
2023/03/22 06:19:20;;;;;;;7.20;4.50;;;10.40;99.90;;;;;;5034261;28;20025;-74
2023/03/22 06:21:46;;;;;;;8.18;3.85;;;10.40;99.90;;;;;;5035519;28;20368;-74
2023/03/22 06:24:11;;;;;;;12.55;4.03;;;10.40;99.90;;;;;;5033199;28;20040;-73
2023/03/22 06:26:37;;;;;;;5.17;3.73;;;10.40;99.90;;;;;;5034940;28;20021;-74
2023/03/22 06:29:02;;;;;;;8.27;4.07;;;10.40;99.90;;;;;;5033206;28;20482;-74
2023/03/22 06:31:29;;;;;;;9.27;4.35;;;10.40;99.90;;;;;;5043912;28;20021;-74
2023/03/22 06:33:54;;;;;;;6.73;3.87;;;10.40;99.90;;;;;;5038745;28;20024;-74
2023/03/22 06:36:20;;;;;;;7.18;4.28;;;10.40;99.90;;;;;;5050024;28;20059;-74
2023/03/22 06:38:45;;;;;;;11.70;4.25;;;10.40;99.90;;;;;;5050109;28;20104;-74
2023/03/22 06:41:11;;;;;;;7.43;3.20;;;10.40;99.90;;;;;;5047190;28;20501;-74
2023/03/22 06:43:37;;;;;;;8.15;3.40;;;10.50;99.90;;;;;;5049233;28;20477;-73
2023/03/22 06:46:02;;;;;;;9.38;4.63;;;10.40;99.90;;;;;;5046265;28;20020;-74
2023/03/22 06:48:28;;;;;;;10.13;3.55;;;10.50;99.90;;;;;;5048421;28;20029;-74
2023/03/22 06:50:54;;;;;;;8.33;3.50;;;10.50;99.90;;;;;;5046899;28;20025;-74
2023/03/22 06:53:19;;;;;;;12.13;3.47;;;10.50;99.90;;;;;;5049266;28;20047;-74
2023/03/22 06:55:45;;;;;;;7.30;3.47;;;10.50;99.90;;;;;;5047252;28;20028;-74
2023/03/22 06:58:11;;;;;;;9.93;3.70;;;10.60;99.90;;;;;;5044628;28;20029;-74
2023/03/22 07:00:37;;;;;;;7.13;3.72;;;10.70;99.90;;;;;;5046580;28;20057;-74
2023/03/22 07:03:03;;;;;;;9.45;3.33;;;10.80;99.90;;;;;;5048241;28;20135;-74
2023/03/22 07:05:29;;;;;;;6.35;3.25;;;11.00;99.90;;;;;;5046264;28;20166;-74
2023/03/22 07:07:55;;;;;;;7.63;2.92;;;11.10;99.90;;;;;;5048374;28;20025;-74
2023/03/22 07:10:20;;;;;;;8.23;3.13;;;11.20;99.90;;;;;;5046626;28;20441;-74
2023/03/22 07:12:46;;;;;;;5.60;3.60;;;11.30;99.90;;;;;;5040420;28;20083;-74
2023/03/22 07:15:11;;;;;;;12.13;3.63;;;11.50;99.90;;;;;;5033895;28;20029;-74
2023/03/22 07:17:37;;;;;;;5.90;3.33;;;11.60;99.90;;;;;;5041017;28;20025;-74
2023/03/22 07:20:03;;;;;;;10.80;3.75;;;11.70;99.90;;;;;;5041878;28;20053;-74
2023/03/22 07:22:28;;;;;;;8.95;3.88;;;11.70;99.90;;;;;;5048393;28;20079;-74
2023/03/22 07:24:55;;;;;;;12.27;3.80;;;11.80;99.90;;;;;;5046237;28;20466;-74
2023/03/22 07:27:20;;;;;;;5.32;3.05;;;11.90;99.90;;;;;;5047920;28;20083;-74
2023/03/22 07:29:46;;;;;;;6.65;2.50;;;12.00;99.90;;;;;;5046997;28;20037;-74
2023/03/22 07:32:11;;;;;;;7.95;3.58;;;12.00;99.90;;;;;;5041332;28;20033;-74
2023/03/22 07:34:37;;;;;;;17.02;3.47;;;12.10;99.90;;;;;;5029785;28;20025;-74
2023/03/22 07:37:03;;;;;;;9.32;3.25;;;12.00;99.90;;;;;;5037681;28;20025;-74
2023/03/22 07:39:30;;;;;;;6.40;4.10;;;12.00;99.90;;;;;;5049220;28;20071;-74
2023/03/22 07:41:55;;;;;;;8.88;3.30;;;12.00;99.90;;;;;;5049355;28;20021;-74
2023/03/22 07:44:21;;;;;;;11.63;3.35;;;12.00;99.90;;;;;;5030514;28;20116;-74
2023/03/22 07:46:49;;;;;;;15.60;4.55;;;12.00;99.90;;;;;;5037402;28;20070;-75
2023/03/22 07:49:15;;;;;;;8.93;4.10;;;12.00;99.90;;;;;;5049455;28;20017;-74
2023/03/22 07:51:41;;;;;;;10.18;3.65;;;12.00;99.90;;;;;;5049606;28;20192;-74
2023/03/22 07:54:06;;;;;;;8.88;3.30;;;12.00;99.90;;;;;;5048724;28;20028;-74
2023/03/22 07:56:32;;;;;;;9.02;3.60;;;12.10;99.90;;;;;;5047777;28;20025;-74
2023/03/22 07:58:57;;;;;;;5.20;2.78;;;12.10;99.90;;;;;;5048008;28;20032;-75
2023/03/22 08:01:23;;;;;;;14.95;4.57;;;12.20;99.90;;;;;;5048444;28;20053;-74
2023/03/22 08:03:49;;;;;;;9.77;5.13;;;12.20;99.90;;;;;;5047767;28;20532;-74
2023/03/22 08:06:17;;;;;;;4.55;3.33;;;12.30;99.90;;;;;;5049185;28;20048;-75
2023/03/22 08:08:43;;;;;;;8.70;3.90;;;12.30;99.90;;;;;;5047910;28;20161;-75
2023/03/22 08:11:09;;;;;;;8.15;3.83;;;12.30;99.90;;;;;;5049440;28;20032;-75
2023/03/22 08:13:35;;;;;;;8.55;3.78;;;12.40;99.90;;;;;;5040954;28;20094;-75
2023/03/22 08:16:00;;;;;;;9.38;3.53;;;12.40;99.90;;;;;;5048654;28;20502;-75
2023/03/22 08:18:26;;;;;;;9.20;4.15;;;12.40;99.90;;;;;;5044948;28;20108;-75
2023/03/22 08:20:59;;;;;;;8.07;3.35;;;12.50;99.90;;;;;;5040344;28;20067;-75
2023/03/22 08:23:26;;;;;;;8.10;3.88;;;12.50;99.90;;;;;;5043772;28;20394;-75
2023/03/22 08:25:52;;;;;;;13.07;3.42;;;12.60;99.90;;;;;;5029711;28;20061;-75
2023/03/22 08:28:18;;;;;;;11.20;4.57;;;12.70;99.90;;;;;;5029613;28;20052;-72
2023/03/22 08:30:45;;;;;;;10.57;3.95;;;12.80;99.90;;;;;;5038144;28;20021;-72
2023/03/22 08:33:12;;;;;;;7.70;3.45;;;12.80;99.90;;;;;;5048604;28;20029;-72
2023/03/22 08:35:38;;;;;;;7.93;4.25;;;12.90;99.90;;;;;;5048718;28;20021;-72
2023/03/22 08:38:04;;;;;;;6.97;2.75;;;12.90;99.90;;;;;;5047390;28;20043;-72
2023/03/22 08:40:29;;;;;;;11.40;4.07;;;12.90;99.90;;;;;;5052075;28;20474;-72
2023/03/22 08:42:55;;;;;;;10.40;3.47;;;13.00;99.90;;;;;;5047671;28;20048;-72
2023/03/22 08:45:21;;;;;;;10.52;4.97;;;13.00;99.90;;;;;;5051397;28;20044;-72
2023/03/22 08:47:46;;;;;;;7.85;3.70;;;13.10;99.90;;;;;;5035052;28;20029;-72
2023/03/22 08:50:12;;;;;;;9.13;4.13;;;13.20;99.90;;;;;;5051677;28;20071;-72
2023/03/22 08:52:38;;;;;;;11.38;4.00;;;13.30;99.90;;;;;;5044346;28;20490;-72
2023/03/22 08:55:07;;;;;;;10.25;3.60;;;13.40;99.90;;;;;;5051438;28;20079;-72
2023/03/22 08:57:33;;;;;;;10.85;4.43;;;13.40;99.90;;;;;;5050402;28;20021;-72
2023/03/22 08:59:59;;;;;;;12.13;5.05;;;13.40;99.90;;;;;;5050943;28;20470;-72
2023/03/22 09:02:24;;;;;;;7.13;3.97;;;13.50;99.90;;;;;;5050371;28;20041;-71
2023/03/22 09:04:50;;;;;;;9.38;3.47;;;13.60;99.90;;;;;;5041781;28;20059;-72
2023/03/22 09:07:23;;;;;;;8.30;3.90;;;13.70;99.90;;;;;;5047871;28;20397;-72
2023/03/22 09:09:48;;;;;;;10.93;4.60;;;13.70;99.90;;;;;;5051234;28;20021;-72
2023/03/22 09:12:15;;;;;;;8.82;3.65;;;13.80;99.90;;;;;;5049280;28;20494;-72
2023/03/22 09:14:40;;;;;;;8.65;4.05;;;13.80;99.90;;;;;;5050710;28;20094;-72
2023/03/22 09:17:06;;;;;;;7.78;3.70;;;13.80;99.90;;;;;;5049969;28;20028;-72
2023/03/22 09:19:31;;;;;;;7.45;2.95;;;13.80;99.90;;;;;;5051533;28;20417;-72
2023/03/22 09:21:57;;;;;;;10.80;3.05;;;13.80;99.90;;;;;;5042290;28;20389;-72
2023/03/22 09:24:22;;;;;;;13.27;3.03;;;13.90;99.90;;;;;;5051888;28;20039;-73
2023/03/22 09:26:49;;;;;;;12.15;2.72;;;13.90;99.90;;;;;;5048332;28;20035;-72
2023/03/22 09:29:14;;;;;;;9.40;2.55;;;13.90;99.90;;;;;;5040388;28;20021;-73
2023/03/22 09:31:40;;;;;;;10.52;3.38;;;14.00;99.90;;;;;;5044052;28;20021;-72
2023/03/22 09:34:06;;;;;;;10.15;2.20;;;14.00;99.90;;;;;;5031021;28;20393;-72
2023/03/22 09:36:31;;;;;;;5.80;2.00;;;13.90;99.90;;;;;;5032573;28;20056;-72
2023/03/22 09:38:58;;;;;;;12.35;2.15;;;13.90;99.90;;;;;;5033176;28;20424;-72
2023/03/22 09:41:49;;;;;;;7.60;2.40;;;13.90;99.90;;;;;;5033487;28;20097;-72
2023/03/22 09:44:21;;;;;;;9.98;2.30;;;13.90;99.90;;;;;;5034703;28;20025;-73
2023/03/22 09:46:49;;;;;;;2.70;1.63;;;13.90;99.90;;;;;;5021549;28;20429;-73
2023/03/22 09:49:21;;;;;;;6.13;1.70;;;13.80;99.90;;;;;;5033113;28;20030;-73
2023/03/22 09:51:52;;;;;;;9.15;1.83;;;13.70;99.90;;;;;;5033643;28;20025;-73
2023/03/22 09:54:34;;;;;;;9.25;2.42;;;13.70;99.90;;;;;;5040109;28;20063;-73
2023/03/22 09:57:00;;;;;;;5.97;1.48;;;13.60;99.90;;;;;;5028063;28;20052;-73
2023/03/22 09:59:45;;;;;;;6.10;2.22;;;13.60;99.90;;;;;;5041908;28;20060;-72
2023/03/22 10:02:38;;;;;;;10.82;2.95;;;13.50;99.90;;;;;;5031498;28;20033;-72
2023/03/22 10:05:22;;;;;;;9.07;2.45;;;13.50;99.90;;;;;;5036773;28;20030;-72
2023/03/22 10:08:00;;;;;;;9.02;2.28;;;13.50;99.90;;;;;;5031963;28;20071;-72
2023/03/22 10:10:26;;;;;;;9.90;2.53;;;13.50;99.90;;;;;;5037709;28;20053;-72
2023/03/22 10:13:12;;;;;;;12.27;3.10;;;13.50;99.90;;;;;;5039029;28;20100;-72
2023/03/22 10:15:42;;;;;;;9.10;2.65;;;13.50;99.90;;;;;;5040757;28;20414;-73
2023/03/22 10:18:15;;;;;;;5.13;1.80;;;13.50;99.90;;;;;;5036372;28;20040;-73
2023/03/22 10:20:56;;;;;;;8.15;2.00;;;13.50;99.90;;;;;;5041947;28;20779;-72
2023/03/22 10:23:43;;;;;;;11.75;2.33;;;13.50;99.90;;;;;;5038230;28;20107;-73
2023/03/22 10:26:18;;;;;;;6.18;1.50;;;13.50;99.90;;;;;;5036502;28;20048;-73
2023/03/22 10:28:52;;;;;;;7.13;1.85;;;13.50;99.90;;;;;;5042088;28;20416;-73
2023/03/22 10:31:20;;;;;;;9.88;1.90;;;13.40;99.90;;;;;;5044651;28;20028;-73
2023/03/22 10:33:57;;;;;;;5.72;1.73;;;13.40;99.90;;;;;;5050391;28;20104;-72
2023/03/22 10:36:29;;;;;;;14.80;3.60;;;13.40;99.90;;;;;;5049274;28;20021;-73
2023/03/22 10:39:02;;;;;;;6.38;1.80;;;13.30;99.90;;;;;;5050170;28;20056;-72
2023/03/22 10:41:31;;;;;;;6.22;2.10;;;13.30;99.90;;;;;;5047377;28;20031;-72
2023/03/22 10:43:59;;;;;;;10.60;2.50;;;13.20;99.90;;;;;;5049050;28;20070;-72
2023/03/22 10:46:30;;;;;;;7.95;2.53;;;13.20;99.90;;;;;;5033612;28;20024;-73
2023/03/22 10:48:58;;;;;;;6.57;2.10;;;13.20;99.90;;;;;;5032023;28;20205;-72
2023/03/22 10:51:42;;;;;;;11.10;3.13;;;13.30;99.90;;;;;;5034346;28;20459;-72
2023/03/22 10:54:13;;;;;;;9.10;2.58;;;13.20;99.90;;;;;;5032757;28;20708;-73
2023/03/22 10:56:39;;;;;;;6.32;2.13;;;13.20;99.90;;;;;;5020921;28;20037;-73
2023/03/22 10:59:04;;;;;;;6.18;2.17;;;13.10;99.90;;;;;;5033703;28;20067;-73
2023/03/22 11:01:38;;;;;;;8.50;2.47;;;13.10;99.90;;;;;;5031324;28;20052;-73
2023/03/22 11:04:05;;;;;;;;;;;13.10;99.90;;;;;;5034446;28;20025;-72
2023/03/22 11:06:35;;;;;;;9.60;2.42;;;13.10;99.90;;;;;;5032017;28;19959;-73
2023/03/22 11:09:11;;;;;;;10.63;2.28;;;13.10;99.90;;;;;;5032949;28;20461;-74
2023/03/22 11:11:53;;;;;;;6.75;2.15;;;13.10;99.90;;;;;;5031664;28;20048;-73
2023/03/22 11:14:26;;;;;;;13.10;2.72;;;13.10;99.90;;;;;;5032014;28;20021;-72
2023/03/22 11:16:59;;;;;;;9.70;2.40;;;13.10;99.90;;;;;;5032729;28;20037;-73
2023/03/22 11:19:34;;;;;;;9.40;2.75;;;13.20;99.90;;;;;;5031535;28;20042;-73
2023/03/22 11:22:20;;;;;;;7.72;1.88;;;13.20;99.90;;;;;;5033830;28;20091;-73
2023/03/22 11:24:46;;;;;;;9.60;2.70;;;13.20;99.90;;;;;;5031610;28;20021;-73
2023/03/22 11:27:27;;;;;;;6.13;2.35;;;13.20;99.90;;;;;;5032992;28;20022;-73
2023/03/22 11:29:58;;;;;;;8.82;2.03;;;13.20;99.90;;;;;;5032098;28;20131;-73
2023/03/22 11:32:29;;;;;;;8.18;1.52;;;13.20;99.90;;;;;;5040423;28;20021;-72
2023/03/22 11:35:24;;;;;;;4.68;1.52;;;13.20;99.90;;;;;;5029937;28;20025;-73
2023/03/22 11:37:52;;;;;;;7.40;2.90;;;13.20;99.90;;;;;;5029393;28;20475;-72
2023/03/22 11:40:30;;;;;;;6.78;2.58;;;13.30;99.90;;;;;;5030128;28;20055;-73
2023/03/22 11:43:17;;;;;;;8.13;2.30;;;13.40;99.90;;;;;;5032336;28;20048;-72
2023/03/22 11:45:44;;;;;;;7.53;2.20;;;13.50;99.90;;;;;;5048340;28;20033;-72
2023/03/22 11:48:17;;;;;;;4.82;1.58;;;13.50;99.90;;;;;;5030180;28;20022;-73
2023/03/22 11:50:44;;;;;;;8.45;3.00;;;13.50;99.90;;;;;;5029997;28;20025;-73
2023/03/22 11:53:17;;;;;;;8.05;1.95;;;13.50;99.90;;;;;;5029865;28;20021;-73
2023/03/22 11:55:44;;;;;;;5.57;2.85;;;13.40;99.90;;;;;;5030671;28;20024;-73
2023/03/22 11:58:25;;;;;;;9.40;2.47;;;13.40;99.90;;;;;;5029936;28;20041;-72
2023/03/22 12:00:59;;;;;;;5.70;2.10;;;13.40;99.90;;;;;;5028899;28;20091;-72
2023/03/22 12:03:33;;;;;;;6.82;1.70;;;13.40;99.90;;;;;;5029913;28;20056;-73
2023/03/22 12:06:04;;;;;;;8.70;1.98;;;13.30;99.90;;;;;;5029798;28;20022;-73
2023/03/22 12:09:24;;;;;;;3.33;1.83;;;13.30;99.90;;;;;;5029401;28;20367;-73
2023/03/22 12:11:56;;;;;;;8.57;2.05;;;13.30;99.90;;;;;;4903236;28;20477;-73
2023/03/22 12:14:40;;;;;;;8.68;1.90;;;13.30;99.90;;;;;;4937106;29;20058;-72
2023/03/22 12:17:21;;;;;;;8.15;2.60;;;13.30;99.90;;;;;;4937419;29;20031;-73
2023/03/22 12:19:55;;;;;;;5.82;1.92;;;13.30;99.90;;;;;;4953551;28;20456;-73
2023/03/22 12:22:28;;;;;;;5.72;1.88;;;13.30;99.90;;;;;;4940177;28;20035;-73
2023/03/22 12:24:54;;;;;;;7.15;1.70;;;13.20;99.90;;;;;;4952555;28;20035;-73
2023/03/22 12:27:42;;;;;;;9.43;1.60;;;13.30;99.90;;;;;;4960399;28;20061;-73
2023/03/22 12:30:23;;;;;;;4.55;1.85;;;13.30;99.90;;;;;;4971182;28;20069;-72
2023/03/22 12:33:10;;;;;;;8.25;1.83;;;13.20;99.90;;;;;;4971621;28;20037;-72
2023/03/22 12:35:41;;;;;;;5.63;1.73;;;13.10;99.90;;;;;;4942086;28;20111;-73
2023/03/22 12:38:18;;;;;;;7.35;2.70;;;13.20;99.90;;;;;;4968229;28;20035;-73
2023/03/22 12:40:45;;;;;;;8.48;1.60;;;13.10;99.90;;;;;;4972214;28;20047;-72
2023/03/22 12:43:23;;;;;;;3.47;1.52;;;13.20;99.90;;;;;;4967403;28;20035;-72
2023/03/22 12:45:53;;;;;;;6.28;2.40;;;13.20;99.90;;;;;;4950267;28;20066;-73
2023/03/22 12:48:28;;;;;;;8.50;2.25;;;13.20;99.90;;;;;;5022561;28;20551;-73
2023/03/22 12:51:06;;;;;;;10.65;1.85;;;13.20;99.90;;;;;;5050399;28;20528;-73
2023/03/22 12:53:41;;;;;;;6.53;1.80;;;13.20;99.90;;;;;;5052708;28;20108;-73
2023/03/22 12:56:10;;;;;;;5.97;2.47;;;13.30;99.90;;;;;;5051657;28;20033;-73
2023/03/22 12:58:38;;;;;;;6.82;2.05;;;13.30;99.90;;;;;;5050677;28;20029;-73